Apache Junction, AZ

5:57 PM MST on August 27, 2014 (GMT -0700)
Phoenix-Mesa Gateway Airport | Change Station
CLOSE
Current Station
Airport
Location: Phoenix-Mesa Gateway Airport,
Elevation: 1381 ft
Nearby Weather Stations

Elev 1381 ft 33.31 °N, 111.66 °W | Updated 10 minutes ago

Scattered Clouds
Scattered Clouds
99 °F
Feels Like 97 °F
N
8
Wind Variable Wind from West

Today
High -- | Low -- °F
--% Chance of Precip.
Yesterday
High -- | Low -- °F
Precip. -- in
5:56 AM 6:56 PM
Waxing Crescent, 5% visible
Pressure 29.93 in
Visibility 45.0 miles
Clouds Scattered Clouds 9000 ft
Heat Index 97 °F
Dew Point 55 °F
Humidity 24%
Rainfall 0.00 in
Snow Depth Not available.
UV 1 out of 12
Pollen 5.00 out of 12
Ozone Good
Flu Activity Not available.
METAR KIWA 280047Z 27007KT 45SM SCT090 37/13 A2993

More Conditions Fewer Conditions

Pressure 29.93 in
Visibility 45.0 miles
Clouds Scattered Clouds 9000 ft
Heat Index 97 °F
Dew Point 55 °F
Humidity 24%
Rainfall 0.00 in
Snow Depth Not available.
UV 1 out of 12
Pollen 5.00 out of 12
Ozone Good
Flu Activity Not available.
METAR KIWA 280047Z 27007KT 45SM SCT090 37/13 A2993

More Conditions Fewer Conditions

10-Day Weather Forecast

Almanac

Astronomy

Aug. 27, 2014 Rise Set
Actual Time 5:56 AM MST 6:56 PM MST
Civil Twilight 5:30 AM MST 7:22 PM MST
Nautical Twilight 5:00 AM MST 7:52 PM MST
Astronomical Twilight 4:29 AM MST 8:23 PM MST
Moon 7:47 AM MST (8/27) 8:00 PM MST (8/27)
Length of Visible Light 13h 51m
Length of Day
13h 00m
Tomorrow will be 1m 56s shorter.
Waxing Crescent, 5% of the Moon is Illuminated
Today
Waxing Crescent
Sep 2
First Quarter
Sep 8
Full
Sep 15
Last Quarter
Sep 24
New

Today's Extremes

State Highs State Lows

Community

WunderPhotos

Upload Photos

1,747,837 photos uploaded!

Nearby

Air Quality

  Air Quality AQ Index Pollutant
Yesterday Good
OZONE
Current Good
OZONE
Wednesday Good
OZONE
Wednesday Good
PM10
Thursday Moderate
OZONE
Thursday Good
PM10
Friday Moderate
OZONE
Friday Good
PM10
Saturday Good
OZONE
Saturday Good
PM10
Sunday Good
OZONE
Sunday Good
PM10
Monday Good
OZONE
Monday Good
PM10

Snow Depth

Station Depth Elevation
Workman Creek 0 in 6900 ft
Beaver Head 18 in 7990 ft
Snowslide Canyon 1 in 9730 ft

Earthquake Activity

City Distance Mag. Time & Date
No recent earthquake activity has been reported nearby.
Minimum magnitude displayed is 2.5.

Coastal Water Temperatures

Place Temperature
No Stations Reporting

Nearby Weather Stations